sensor_id;sensor_type;location;lat;lon;timestamp;pressure;altitude;pressure_sealevel;temperature;humidity
61573;BME280;47465;43.094;12.434;2023-03-19T00:00:00;99039.88;;;9.05;100.00
61573;BME280;47465;43.094;12.434;2023-03-19T00:02:26;99064.34;;;9.21;100.00
61573;BME280;47465;43.094;12.434;2023-03-19T00:04:51;99074.84;;;9.29;100.00
61573;BME280;47465;43.094;12.434;2023-03-19T00:07:17;99042.41;;;9.11;100.00
61573;BME280;47465;43.094;12.434;2023-03-19T00:09:45;99071.34;;;9.27;100.00
61573;BME280;47465;43.094;12.434;2023-03-19T00:12:12;99037.97;;;9.12;100.00
61573;BME280;47465;43.094;12.434;2023-03-19T00:14:38;99037.84;;;9.19;100.00
61573;BME280;47465;43.094;12.434;2023-03-19T00:17:08;99075.47;;;9.43;100.00
61573;BME280;47465;43.094;12.434;2023-03-19T00:19:34;99031.72;;;9.17;100.00
61573;BME280;47465;43.094;12.434;2023-03-19T00:21:59;99052.81;;;9.23;100.00
61573;BME280;47465;43.094;12.434;2023-03-19T00:24:26;99081.72;;;9.40;100.00
61573;BME280;47465;43.094;12.434;2023-03-19T00:26:55;99072.97;;;9.35;100.00
61573;BME280;47465;43.094;12.434;2023-03-19T00:29:21;99037.03;;;9.14;100.00
61573;BME280;47465;43.094;12.434;2023-03-19T00:31:48;99045.75;;;9.22;100.00
61573;BME280;47465;43.094;12.434;2023-03-19T00:34:14;99090.50;;;9.44;100.00
61573;BME280;47465;43.094;12.434;2023-03-19T00:36:43;99041.31;;;9.24;100.00
61573;BME280;47465;43.094;12.434;2023-03-19T00:39:09;99032.53;;;9.19;100.00
61573;BME280;47465;43.094;12.434;2023-03-19T00:41:35;99082.41;;;9.52;100.00
61573;BME280;47465;43.094;12.434;2023-03-19T00:44:03;99064.84;;;9.44;100.00
61573;BME280;47465;43.094;12.434;2023-03-19T00:46:35;99040.25;;;9.35;100.00
61573;BME280;47465;43.094;12.434;2023-03-19T00:49:17;99036.75;;;9.31;100.00
61573;BME280;47465;43.094;12.434;2023-03-19T00:51:52;99028.03;;;9.24;100.00
61573;BME280;47465;43.094;12.434;2023-03-19T00:54:20;99048.06;;;9.41;100.00
61573;BME280;47465;43.094;12.434;2023-03-19T00:56:52;99006.69;;;9.31;100.00
61573;BME280;47465;43.094;12.434;2023-03-19T00:59:19;99025.75;;;9.54;100.00
61573;BME280;47465;43.094;12.434;2023-03-19T01:01:45;98994.84;;;9.49;100.00
61573;BME280;47465;43.094;12.434;2023-03-19T01:04:11;99025.66;;;9.59;100.00
61573;BME280;47465;43.094;12.434;2023-03-19T01:06:37;98982.75;;;9.32;100.00
61573;BME280;47465;43.094;12.434;2023-03-19T01:09:03;98974.88;;;9.29;100.00
61573;BME280;47465;43.094;12.434;2023-03-19T01:11:29;98977.59;;;9.26;100.00
61573;BME280;47465;43.094;12.434;2023-03-19T01:13:55;98988.34;;;9.18;100.00
61573;BME280;47465;43.094;12.434;2023-03-19T01:16:22;98993.91;;;9.03;100.00
61573;BME280;47465;43.094;12.434;2023-03-19T01:18:48;98989.47;;;9.03;100.00
61573;BME280;47465;43.094;12.434;2023-03-19T01:21:14;98969.38;;;8.90;100.00
61573;BME280;47465;43.094;12.434;2023-03-19T01:23:40;98988.72;;;8.97;100.00
61573;BME280;47465;43.094;12.434;2023-03-19T01:26:06;99002.94;;;8.91;100.00
61573;BME280;47465;43.094;12.434;2023-03-19T01:28:32;98989.09;;;8.74;100.00
61573;BME280;47465;43.094;12.434;2023-03-19T01:30:59;98971.63;;;8.60;100.00
61573;BME280;47465;43.094;12.434;2023-03-19T01:33:27;99005.84;;;8.76;100.00
61573;BME280;47465;43.094;12.434;2023-03-19T01:35:53;98981.44;;;8.54;100.00
61573;BME280;47465;43.094;12.434;2023-03-19T01:38:19;99001.69;;;8.61;100.00
61573;BME280;47465;43.094;12.434;2023-03-19T01:40:46;98978.00;;;8.50;100.00
61573;BME280;47465;43.094;12.434;2023-03-19T01:43:15;98972.69;;;8.50;100.00
61573;BME280;47465;43.094;12.434;2023-03-19T01:45:43;98972.56;;;8.56;100.00
61573;BME280;47465;43.094;12.434;2023-03-19T01:48:16;98969.06;;;8.56;100.00
61573;BME280;47465;43.094;12.434;2023-03-19T01:50:46;98966.41;;;8.54;100.00
61573;BME280;47465;43.094;12.434;2023-03-19T01:53:16;98959.38;;;8.53;100.00
61573;BME280;47465;43.094;12.434;2023-03-19T01:55:42;98986.59;;;8.63;100.00
61573;BME280;47465;43.094;12.434;2023-03-19T01:58:08;99000.72;;;8.65;100.00
61573;BME280;47465;43.094;12.434;2023-03-19T02:00:36;98964.81;;;8.44;100.00
61573;BME280;47465;43.094;12.434;2023-03-19T02:03:04;98975.50;;;8.36;100.00
61573;BME280;47465;43.094;12.434;2023-03-19T02:05:32;99000.00;;;8.54;100.00
61573;BME280;47465;43.094;12.434;2023-03-19T02:08:04;98988.47;;;8.58;100.00
61573;BME280;47465;43.094;12.434;2023-03-19T02:10:31;98982.31;;;8.54;100.00
61573;BME280;47465;43.094;12.434;2023-03-19T02:12:57;98969.06;;;8.56;100.00
61573;BME280;47465;43.094;12.434;2023-03-19T02:15:23;99016.28;;;8.87;100.00
61573;BME280;47465;43.094;12.434;2023-03-19T02:17:49;98986.47;;;8.72;100.00
61573;BME280;47465;43.094;12.434;2023-03-19T02:20:19;98974.84;;;8.81;100.00
61573;BME280;47465;43.094;12.434;2023-03-19T02:23:08;99000.94;;;9.05;100.00
61573;BME280;47465;43.094;12.434;2023-03-19T02:25:50;99004.69;;;8.94;100.00
61573;BME280;47465;43.094;12.434;2023-03-19T02:28:20;98975.03;;;8.70;100.00
61573;BME280;47465;43.094;12.434;2023-03-19T02:30:48;98980.56;;;8.55;100.00
61573;BME280;47465;43.094;12.434;2023-03-19T02:33:15;99015.75;;;8.63;100.00
61573;BME280;47465;43.094;12.434;2023-03-19T02:35:43;99028.28;;;8.53;100.00
61573;BME280;47465;43.094;12.434;2023-03-19T02:38:10;98992.41;;;8.29;100.00
61573;BME280;47465;43.094;12.434;2023-03-19T02:40:40;98975.13;;;8.00;100.00
61573;BME280;47465;43.094;12.434;2023-03-19T02:43:09;98976.16;;;7.89;100.00
61573;BME280;47465;43.094;12.434;2023-03-19T02:45:35;99013.81;;;8.11;100.00
61573;BME280;47465;43.094;12.434;2023-03-19T02:48:01;98989.28;;;7.98;100.00
61573;BME280;47465;43.094;12.434;2023-03-19T02:50:28;98990.97;;;8.03;100.00
61573;BME280;47465;43.094;12.434;2023-03-19T02:52:54;98983.81;;;8.12;100.00
61573;BME280;47465;43.094;12.434;2023-03-19T02:55:20;99013.66;;;8.23;100.00
61573;BME280;47465;43.094;12.434;2023-03-19T02:57:46;98968.00;;;8.06;100.00
61573;BME280;47465;43.094;12.434;2023-03-19T03:02:44;98999.47;;;8.29;100.00
61573;BME280;47465;43.094;12.434;2023-03-19T03:05:11;98961.75;;;8.10;100.00
61573;BME280;47465;43.094;12.434;2023-03-19T03:07:38;98990.78;;;8.17;100.00
61573;BME280;47465;43.094;12.434;2023-03-19T03:10:05;98998.78;;;8.14;100.00
61573;BME280;47465;43.094;12.434;2023-03-19T03:12:31;99013.75;;;8.17;100.00
61573;BME280;47465;43.094;12.434;2023-03-19T03:14:57;99010.38;;;8.06;100.00
61573;BME280;47465;43.094;12.434;2023-03-19T03:17:23;99018.31;;;8.07;100.00
61573;BME280;47465;43.094;12.434;2023-03-19T03:19:50;99019.38;;;7.92;100.00
61573;BME280;47465;43.094;12.434;2023-03-19T03:22:16;99015.94;;;7.86;100.00
61573;BME280;47465;43.094;12.434;2023-03-19T03:24:42;99012.50;;;7.77;100.00
61573;BME280;47465;43.094;12.434;2023-03-19T03:27:08;99031.81;;;7.84;100.00
61573;BME280;47465;43.094;12.434;2023-03-19T03:29:34;99000.31;;;7.63;100.00
61573;BME280;47465;43.094;12.434;2023-03-19T03:32:01;99001.16;;;7.66;100.00
61573;BME280;47465;43.094;12.434;2023-03-19T03:34:27;99004.78;;;7.54;100.00
61573;BME280;47465;43.094;12.434;2023-03-19T03:36:54;99025.03;;;7.58;100.00
61573;BME280;47465;43.094;12.434;2023-03-19T03:39:20;99000.53;;;7.41;100.00
61573;BME280;47465;43.094;12.434;2023-03-19T03:41:47;99019.81;;;7.54;100.00
61573;BME280;47465;43.094;12.434;2023-03-19T03:44:12;99005.00;;;7.36;100.00
61573;BME280;47465;43.094;12.434;2023-03-19T03:46:39;99020.88;;;7.34;100.00
61573;BME280;47465;43.094;12.434;2023-03-19T03:49:04;99018.31;;;7.28;100.00
61573;BME280;47465;43.094;12.434;2023-03-19T03:51:30;99021.00;;;7.25;100.00
61573;BME280;47465;43.094;12.434;2023-03-19T03:53:58;99013.09;;;7.20;100.00
61573;BME280;47465;43.094;12.434;2023-03-19T03:56:24;99028.00;;;7.31;100.00
61573;BME280;47465;43.094;12.434;2023-03-19T03:58:50;99021.84;;;7.26;100.00
61573;BME280;47465;43.094;12.434;2023-03-19T04:01:17;99021.91;;;7.23;100.00
61573;BME280;47465;43.094;12.434;2023-03-19T04:03:43;99073.63;;;7.53;100.00
61573;BME280;47465;43.094;12.434;2023-03-19T04:06:13;99029.69;;;7.35;100.00
61573;BME280;47465;43.094;12.434;2023-03-19T04:08:40;99027.13;;;7.29;100.00
61573;BME280;47465;43.094;12.434;2023-03-19T04:11:08;99019.22;;;7.27;100.00
61573;BME280;47465;43.094;12.434;2023-03-19T04:13:34;99025.31;;;7.32;100.00
61573;BME280;47465;43.094;12.434;2023-03-19T04:16:01;99019.19;;;7.29;100.00
61573;BME280;47465;43.094;12.434;2023-03-19T04:18:27;99046.38;;;7.46;100.00
61573;BME280;47465;43.094;12.434;2023-03-19T04:20:53;99024.44;;;7.30;100.00
61573;BME280;47465;43.094;12.434;2023-03-19T04:23:19;99048.09;;;7.47;100.00
61573;BME280;47465;43.094;12.434;2023-03-19T04:25:45;99046.41;;;7.40;100.00
61573;BME280;47465;43.094;12.434;2023-03-19T04:28:12;99064.84;;;7.48;100.00
61573;BME280;47465;43.094;12.434;2023-03-19T04:30:38;99064.91;;;7.41;100.00
61573;BME280;47465;43.094;12.434;2023-03-19T04:33:04;99025.47;;;7.15;100.00
61573;BME280;47465;43.094;12.434;2023-03-19T04:35:31;99029.03;;;7.13;100.00
61573;BME280;47465;43.094;12.434;2023-03-19T04:37:57;99032.53;;;7.13;100.00
61573;BME280;47465;43.094;12.434;2023-03-19T04:40:23;99046.53;;;7.28;100.00
61573;BME280;47465;43.094;12.434;2023-03-19T04:42:49;99028.06;;;7.25;100.00
61573;BME280;47465;43.094;12.434;2023-03-19T04:45:17;99064.03;;;7.41;100.00
61573;BME280;47465;43.094;12.434;2023-03-19T04:47:43;99038.59;;;7.28;100.00
61573;BME280;47465;43.094;12.434;2023-03-19T04:50:09;99074.53;;;7.50;100.00
61573;BME280;47465;43.094;12.434;2023-03-19T04:52:36;99043.00;;;7.29;100.00
61573;BME280;47465;43.094;12.434;2023-03-19T04:55:02;99055.22;;;7.40;100.00
61573;BME280;47465;43.094;12.434;2023-03-19T04:57:28;99045.56;;;7.35;100.00
61573;BME280;47465;43.094;12.434;2023-03-19T04:59:54;99039.47;;;7.30;100.00
61573;BME280;47465;43.094;12.434;2023-03-19T05:02:21;99024.50;;;7.27;100.00
61573;BME280;47465;43.094;12.434;2023-03-19T05:04:47;99056.94;;;7.46;100.00
61573;BME280;47465;43.094;12.434;2023-03-19T05:07:13;99037.63;;;7.35;100.00
61573;BME280;47465;43.094;12.434;2023-03-19T05:09:39;99038.50;;;7.37;100.00
61573;BME280;47465;43.094;12.434;2023-03-19T05:12:08;99070.09;;;7.54;100.00
61573;BME280;47465;43.094;12.434;2023-03-19T05:14:34;99048.09;;;7.47;100.00
61573;BME280;47465;43.094;12.434;2023-03-19T05:17:00;99051.56;;;7.52;100.00
61573;BME280;47465;43.094;12.434;2023-03-19T05:19:27;99033.19;;;7.40;100.00
61573;BME280;47465;43.094;12.434;2023-03-19T05:21:53;99038.38;;;7.49;100.00
61573;BME280;47465;43.094;12.434;2023-03-19T05:24:21;99047.13;;;7.57;100.00
61573;BME280;47465;43.094;12.434;2023-03-19T05:26:47;99058.53;;;7.61;100.00
61573;BME280;47465;43.094;12.434;2023-03-19T05:29:13;99063.75;;;7.69;100.00
61573;BME280;47465;43.094;12.434;2023-03-19T05:31:39;99040.03;;;7.59;100.00
61573;BME280;47465;43.094;12.434;2023-03-19T05:34:05;99046.97;;;7.70;100.00
61573;BME280;47465;43.094;12.434;2023-03-19T05:36:33;99032.97;;;7.61;100.00
61573;BME280;47465;43.094;12.434;2023-03-19T05:38:59;99060.94;;;7.86;100.00
61573;BME280;47465;43.094;12.434;2023-03-19T05:41:26;99053.97;;;7.75;100.00
61573;BME280;47465;43.094;12.434;2023-03-19T05:43:52;99076.75;;;7.90;100.00
61573;BME280;47465;43.094;12.434;2023-03-19T05:46:18;99061.00;;;7.81;100.00
61573;BME280;47465;43.094;12.434;2023-03-19T05:48:44;99035.50;;;7.71;100.00
61573;BME280;47465;43.094;12.434;2023-03-19T05:51:10;99068.81;;;7.92;100.00
61573;BME280;47465;43.094;12.434;2023-03-19T05:53:37;99066.97;;;7.95;100.00
61573;BME280;47465;43.094;12.434;2023-03-19T05:56:04;99072.22;;;8.01;100.00
61573;BME280;47465;43.094;12.434;2023-03-19T05:58:30;99080.88;;;8.16;100.00
61573;BME280;47465;43.094;12.434;2023-03-19T06:00:56;99069.28;;;8.25;100.00
61573;BME280;47465;43.094;12.434;2023-03-19T06:03:22;99045.41;;;8.26;100.00
61573;BME280;47465;43.094;12.434;2023-03-19T06:05:48;99075.16;;;8.51;100.00
61573;BME280;47465;43.094;12.434;2023-03-19T06:08:14;99040.81;;;8.39;100.00
61573;BME280;47465;43.094;12.434;2023-03-19T06:10:42;99062.59;;;8.62;100.00
61573;BME280;47465;43.094;12.434;2023-03-19T06:13:08;99050.22;;;8.64;100.00
61573;BME280;47465;43.094;12.434;2023-03-19T06:15:33;99056.28;;;8.74;100.00
61573;BME280;47465;43.094;12.434;2023-03-19T06:17:59;99084.09;;;9.03;100.00
61573;BME280;47465;43.094;12.434;2023-03-19T06:20:25;99073.50;;;9.01;100.00
61573;BME280;47465;43.094;12.434;2023-03-19T06:22:51;99061.88;;;9.10;100.00
61573;BME280;47465;43.094;12.434;2023-03-19T06:25:17;99052.09;;;9.14;100.00
61573;BME280;47465;43.094;12.434;2023-03-19T06:27:45;99059.91;;;9.23;100.00
61573;BME280;47465;43.094;12.434;2023-03-19T06:30:11;99089.59;;;9.45;100.00
61573;BME280;47465;43.094;12.434;2023-03-19T06:32:37;99067.69;;;9.34;100.00
61573;BME280;47465;43.094;12.434;2023-03-19T06:35:04;99046.59;;;9.26;100.00
61573;BME280;47465;43.094;12.434;2023-03-19T06:37:31;99060.44;;;9.43;100.00
61573;BME280;47465;43.094;12.434;2023-03-19T06:39:57;99070.88;;;9.54;100.00
61573;BME280;47465;43.094;12.434;2023-03-19T06:42:23;99077.81;;;9.60;100.00
61573;BME280;47465;43.094;12.434;2023-03-19T06:44:50;99069.75;;;9.68;100.00
61573;BME280;47465;43.094;12.434;2023-03-19T06:47:16;99087.09;;;9.85;100.00
61573;BME280;47465;43.094;12.434;2023-03-19T06:49:42;99082.75;;;9.81;100.00
61573;BME280;47465;43.094;12.434;2023-03-19T06:52:08;99079.16;;;9.84;100.00
61573;BME280;47465;43.094;12.434;2023-03-19T06:54:34;99075.44;;;9.93;100.00
61573;BME280;47465;43.094;12.434;2023-03-19T06:57:00;99103.41;;;10.12;100.00
61573;BME280;47465;43.094;12.434;2023-03-19T06:59:26;99112.16;;;10.17;100.00
61573;BME280;47465;43.094;12.434;2023-03-19T07:01:54;99113.88;;;10.20;100.00
61573;BME280;47465;43.094;12.434;2023-03-19T07:04:19;99101.56;;;10.16;100.00
61573;BME280;47465;43.094;12.434;2023-03-19T07:06:45;99109.34;;;10.25;100.00
61573;BME280;47465;43.094;12.434;2023-03-19T07:09:12;99131.28;;;10.36;100.00
61573;BME280;47465;43.094;12.434;2023-03-19T07:11:38;99137.34;;;10.43;99.79
61573;BME280;47465;43.094;12.434;2023-03-19T07:14:04;99122.44;;;10.36;99.67
61573;BME280;47465;43.094;12.434;2023-03-19T07:16:30;99113.63;;;10.34;98.74
61573;BME280;47465;43.094;12.434;2023-03-19T07:18:57;99117.78;;;10.47;98.92
61573;BME280;47465;43.094;12.434;2023-03-19T07:21:23;99147.41;;;10.72;99.01
61573;BME280;47465;43.094;12.434;2023-03-19T07:23:49;99141.06;;;10.78;98.45
61573;BME280;47465;43.094;12.434;2023-03-19T07:26:15;99138.34;;;10.81;97.52
61573;BME280;47465;43.094;12.434;2023-03-19T07:28:41;99154.81;;;10.97;97.10
61573;BME280;47465;43.094;12.434;2023-03-19T07:31:07;99158.91;;;11.13;94.91
61573;BME280;47465;43.094;12.434;2023-03-19T07:33:33;99155.03;;;11.26;94.19
61573;BME280;47465;43.094;12.434;2023-03-19T07:36:01;99164.47;;;11.40;92.94
61573;BME280;47465;43.094;12.434;2023-03-19T07:38:27;99145.00;;;11.38;93.40
61573;BME280;47465;43.094;12.434;2023-03-19T07:40:53;99162.31;;;11.56;93.29
61573;BME280;47465;43.094;12.434;2023-03-19T07:43:19;99151.78;;;11.51;92.45
61573;BME280;47465;43.094;12.434;2023-03-19T07:45:44;99159.59;;;11.59;91.51
61573;BME280;47465;43.094;12.434;2023-03-19T07:48:10;99168.22;;;11.68;90.83
61573;BME280;47465;43.094;12.434;2023-03-19T07:50:37;99167.75;;;11.87;89.50
61573;BME280;47465;43.094;12.434;2023-03-19T07:53:04;99125.53;;;11.71;88.68
61573;BME280;47465;43.094;12.434;2023-03-19T07:55:30;99134.19;;;11.80;87.27
61573;BME280;47465;43.094;12.434;2023-03-19T07:57:56;99149.16;;;11.84;87.60
61573;BME280;47465;43.094;12.434;2023-03-19T08:00:22;99150.75;;;11.92;87.27
61573;BME280;47465;43.094;12.434;2023-03-19T08:02:48;99137.97;;;12.05;86.58
61573;BME280;47465;43.094;12.434;2023-03-19T08:05:14;99155.03;;;12.31;85.73
61573;BME280;47465;43.094;12.434;2023-03-19T08:07:40;99160.78;;;12.48;83.24
61573;BME280;47465;43.094;12.434;2023-03-19T08:10:09;99157.13;;;12.51;84.99
61573;BME280;47465;43.094;12.434;2023-03-19T08:12:36;99145.16;;;12.66;84.73
61573;BME280;47465;43.094;12.434;2023-03-19T08:15:07;99150.59;;;12.92;80.96
61573;BME280;47465;43.094;12.434;2023-03-19T08:17:33;99139.13;;;12.89;81.01
61573;BME280;47465;43.094;12.434;2023-03-19T08:20:04;99120.47;;;12.58;80.97
61573;BME280;47465;43.094;12.434;2023-03-19T08:22:31;99123.88;;;12.33;84.27
61573;BME280;47465;43.094;12.434;2023-03-19T08:24:57;99133.81;;;12.58;83.88
61573;BME280;47465;43.094;12.434;2023-03-19T08:27:25;99126.19;;;12.75;82.78
61573;BME280;47465;43.094;12.434;2023-03-19T08:29:52;99167.72;;;13.13;81.59
61573;BME280;47465;43.094;12.434;2023-03-19T08:32:18;99129.72;;;13.05;80.92
61573;BME280;47465;43.094;12.434;2023-03-19T08:34:44;99142.59;;;13.21;79.03
61573;BME280;47465;43.094;12.434;2023-03-19T08:37:11;99142.47;;;13.25;79.36
61573;BME280;47465;43.094;12.434;2023-03-19T08:39:36;99154.00;;;13.54;78.63
61573;BME280;47465;43.094;12.434;2023-03-19T08:42:02;99164.03;;;13.74;76.97
61573;BME280;47465;43.094;12.434;2023-03-19T08:44:30;99168.03;;;13.87;78.11
61573;BME280;47465;43.094;12.434;2023-03-19T08:46:56;99168.91;;;13.61;77.99
61573;BME280;47465;43.094;12.434;2023-03-19T08:49:22;99148.84;;;12.91;80.79
61573;BME280;47465;43.094;12.434;2023-03-19T08:51:48;99173.22;;;13.09;82.37
61573;BME280;47465;43.094;12.434;2023-03-19T08:54:14;99159.72;;;13.13;81.70
61573;BME280;47465;43.094;12.434;2023-03-19T08:56:40;99158.56;;;13.22;81.69
61573;BME280;47465;43.094;12.434;2023-03-19T08:59:06;99152.31;;;13.23;81.71
61573;BME280;47465;43.094;12.434;2023-03-19T09:01:34;99139.97;;;13.19;81.02
61573;BME280;47465;43.094;12.434;2023-03-19T09:04:00;99170.34;;;13.45;80.95
61573;BME280;47465;43.094;12.434;2023-03-19T09:06:27;99149.34;;;13.04;79.84
61573;BME280;47465;43.094;12.434;2023-03-19T09:08:56;99142.03;;;12.81;81.40
61573;BME280;47465;43.094;12.434;2023-03-19T09:11:25;99150.69;;;12.89;80.60
61573;BME280;47465;43.094;12.434;2023-03-19T09:13:51;99142.13;;;12.78;81.55
61573;BME280;47465;43.094;12.434;2023-03-19T09:16:17;99168.38;;;12.92;82.91
61573;BME280;47465;43.094;12.434;2023-03-19T09:18:48;99148.00;;;12.60;82.66
61573;BME280;47465;43.094;12.434;2023-03-19T09:21:14;99148.22;;;12.52;83.66
61573;BME280;47465;43.094;12.434;2023-03-19T09:23:40;99172.50;;;12.74;83.90
61573;BME280;47465;43.094;12.434;2023-03-19T09:26:09;99141.06;;;12.54;84.64
61573;BME280;47465;43.094;12.434;2023-03-19T09:28:35;99161.22;;;12.64;83.46
61573;BME280;47465;43.094;12.434;2023-03-19T09:31:02;99148.78;;;12.93;83.27
61573;BME280;47465;43.094;12.434;2023-03-19T09:33:31;99181.63;;;13.25;83.27
61573;BME280;47465;43.094;12.434;2023-03-19T09:35:59;99149.69;;;13.22;82.11
61573;BME280;47465;43.094;12.434;2023-03-19T09:38:56;99147.34;;;13.41;80.65
61573;BME280;47465;43.094;12.434;2023-03-19T09:41:28;99148.59;;;13.29;81.08
61573;BME280;47465;43.094;12.434;2023-03-19T09:44:04;99185.06;;;13.58;80.22
61573;BME280;47465;43.094;12.434;2023-03-19T09:46:40;99159.06;;;13.35;80.99
61573;BME280;47465;43.094;12.434;2023-03-19T09:49:18;99163.16;;;13.47;81.01
61573;BME280;47465;43.094;12.434;2023-03-19T09:51:50;99157.50;;;13.83;78.95
61573;BME280;47465;43.094;12.434;2023-03-19T09:54:28;99146.78;;;13.58;79.45
61573;BME280;47465;43.094;12.434;2023-03-19T09:56:54;99178.66;;;13.90;79.64
61573;BME280;47465;43.094;12.434;2023-03-19T09:59:22;99145.84;;;14.10;78.51
61573;BME280;47465;43.094;12.434;2023-03-19T10:01:53;99140.72;;;14.29;75.95
61573;BME280;47465;43.094;12.434;2023-03-19T10:04:40;99174.19;;;14.41;75.19
61573;BME280;47465;43.094;12.434;2023-03-19T10:07:18;99154.03;;;14.31;75.69
61573;BME280;47465;43.094;12.434;2023-03-19T10:09:54;99149.63;;;14.30;74.99
61573;BME280;47465;43.094;12.434;2023-03-19T10:12:46;99172.59;;;14.35;75.45
61573;BME280;47465;43.094;12.434;2023-03-19T10:15:20;99153.31;;;14.01;77.00
61573;BME280;47465;43.094;12.434;2023-03-19T10:17:53;99160.69;;;13.94;77.90
61573;BME280;47465;43.094;12.434;2023-03-19T10:20:28;99184.44;;;14.03;78.08
61573;BME280;47465;43.094;12.434;2023-03-19T10:23:01;99179.09;;;14.03;77.48
61573;BME280;47465;43.094;12.434;2023-03-19T10:25:31;99150.16;;;13.89;78.27
61573;BME280;47465;43.094;12.434;2023-03-19T10:27:59;99139.28;;;13.94;77.62
61573;BME280;47465;43.094;12.434;2023-03-19T10:30:32;99126.44;;;14.05;76.03
61573;BME280;47465;43.094;12.434;2023-03-19T10:33:08;99125.63;;;14.27;75.63
61573;BME280;47465;43.094;12.434;2023-03-19T10:35:43;99125.97;;;14.43;75.18
61573;BME280;47465;43.094;12.434;2023-03-19T10:38:19;99125.25;;;14.63;73.63
61573;BME280;47465;43.094;12.434;2023-03-19T10:40:55;99136.94;;;14.35;74.34
61573;BME280;47465;43.094;12.434;2023-03-19T10:43:28;99154.81;;;14.34;75.72
61573;BME280;47465;43.094;12.434;2023-03-19T10:45:56;99135.00;;;14.40;75.77
61573;BME280;47465;43.094;12.434;2023-03-19T10:48:24;99122.56;;;14.63;74.64
61573;BME280;47465;43.094;12.434;2023-03-19T10:50:52;99115.44;;;14.85;72.79
61573;BME280;47465;43.094;12.434;2023-03-19T10:53:30;99133.03;;;14.92;72.85
61573;BME280;47465;43.094;12.434;2023-03-19T10:56:00;99112.94;;;14.33;72.93
61573;BME280;47465;43.094;12.434;2023-03-19T10:58:28;99121.75;;;14.35;71.62
61573;BME280;47465;43.094;12.434;2023-03-19T11:00:56;99110.53;;;13.75;73.64
61573;BME280;47465;43.094;12.434;2023-03-19T11:03:31;99112.19;;;13.53;74.91
61573;BME280;47465;43.094;12.434;2023-03-19T11:06:15;99122.75;;;13.58;76.65
61573;BME280;47465;43.094;12.434;2023-03-19T11:08:55;99132.91;;;13.98;76.12
61573;BME280;47465;43.094;12.434;2023-03-19T11:11:23;99113.84;;;14.07;73.75
61573;BME280;47465;43.094;12.434;2023-03-19T11:13:49;99105.00;;;14.30;73.52
61573;BME280;47465;43.094;12.434;2023-03-19T11:16:15;99072.84;;;14.32;70.88
61573;BME280;47465;43.094;12.434;2023-03-19T11:18:47;99090.47;;;14.37;70.34
61573;BME280;47465;43.094;12.434;2023-03-19T11:21:23;99082.44;;;14.37;72.04
61573;BME280;47465;43.094;12.434;2023-03-19T11:23:58;99096.53;;;14.43;70.31
61573;BME280;47465;43.094;12.434;2023-03-19T11:26:24;99088.56;;;14.41;70.17
61573;BME280;47465;43.094;12.434;2023-03-19T11:29:00;99110.66;;;14.71;70.24
61573;BME280;47465;43.094;12.434;2023-03-19T11:31:29;99090.09;;;14.72;70.08
61573;BME280;47465;43.094;12.434;2023-03-19T11:34:12;99085.66;;;14.94;70.23
61573;BME280;47465;43.094;12.434;2023-03-19T11:36:48;99062.78;;;14.86;68.83
61573;BME280;47465;43.094;12.434;2023-03-19T11:39:25;99062.78;;;14.86;69.88
61573;BME280;47465;43.094;12.434;2023-03-19T11:44:55;99071.13;;;15.00;68.60
61573;BME280;47465;43.094;12.434;2023-03-19T11:47:29;99064.28;;;14.71;69.45
61573;BME280;47465;43.094;12.434;2023-03-19T11:50:12;99084.44;;;14.79;70.89
61573;BME280;47465;43.094;12.434;2023-03-19T11:53:02;99043.16;;;14.85;67.70
61573;BME280;47465;43.094;12.434;2023-03-19T11:55:34;99050.72;;;14.97;68.51
61573;BME280;47465;43.094;12.434;2023-03-19T11:58:21;99029.03;;;14.82;68.91
61573;BME280;47465;43.094;12.434;2023-03-19T12:00:52;99027.16;;;15.06;67.80
61573;BME280;47465;43.094;12.434;2023-03-19T12:06:27;99020.00;;;14.38;70.30
61573;BME280;47465;43.094;12.434;2023-03-19T12:09:02;99025.22;;;14.18;71.36
61573;BME280;47465;43.094;12.434;2023-03-19T12:11:35;99047.88;;;14.56;71.39
61573;BME280;47465;43.094;12.434;2023-03-19T12:14:15;99039.03;;;14.76;72.59
61573;BME280;47465;43.094;12.434;2023-03-19T12:16:56;99046.88;;;14.81;71.67
61573;BME280;47465;43.094;12.434;2023-03-19T12:19:45;99021.81;;;14.62;69.43
61573;BME280;47465;43.094;12.434;2023-03-19T12:22:27;99035.72;;;14.46;70.85
61573;BME280;47465;43.094;12.434;2023-03-19T12:25:09;99029.69;;;14.41;71.59
61573;BME280;47465;43.094;12.434;2023-03-19T12:27:48;99066.88;;;14.25;72.27
61573;BME280;47465;43.094;12.434;2023-03-19T12:30:24;99052.03;;;14.16;72.98
61573;BME280;47465;43.094;12.434;2023-03-19T12:33:03;99032.38;;;14.17;72.80
61573;BME280;47465;43.094;12.434;2023-03-19T12:35:34;99023.88;;;14.06;73.05
61573;BME280;47465;43.094;12.434;2023-03-19T12:38:03;99030.03;;;14.08;73.11
61573;BME280;47465;43.094;12.434;2023-03-19T12:40:36;99040.09;;;14.02;73.62
61573;BME280;47465;43.094;12.434;2023-03-19T12:43:17;99026.47;;;13.84;74.07
61573;BME280;47465;43.094;12.434;2023-03-19T12:45:46;99031.81;;;13.84;74.75
61573;BME280;47465;43.094;12.434;2023-03-19T12:48:18;99061.31;;;14.06;75.78
61573;BME280;47465;43.094;12.434;2023-03-19T12:50:49;99064.94;;;14.05;75.85
61573;BME280;47465;43.094;12.434;2023-03-19T12:53:25;99032.25;;;13.72;75.02
61573;BME280;47465;43.094;12.434;2023-03-19T12:55:56;99058.16;;;13.95;75.01
61573;BME280;47465;43.094;12.434;2023-03-19T12:58:35;99034.28;;;13.65;73.80
61573;BME280;47465;43.094;12.434;2023-03-19T13:01:07;99032.97;;;13.52;74.62
61573;BME280;47465;43.094;12.434;2023-03-19T13:03:39;99024.81;;;13.55;74.91
61573;BME280;47465;43.094;12.434;2023-03-19T13:06:13;99025.44;;;13.63;76.19